sensor_id;sensor_type;location;lat;lon;timestamp;temperature;humidity
5802;DHT22;2927;49.366;8.530;2022-09-09T19:06:13;16.30;1.00
5802;DHT22;2927;49.366;8.530;2022-09-09T19:08:41;16.30;1.00
5802;DHT22;2927;49.366;8.530;2022-09-09T19:11:09;16.50;16.00
5802;DHT22;2927;49.366;8.530;2022-09-09T19:13:35;16.50;65.00
5802;DHT22;2927;49.366;8.530;2022-09-09T19:16:12;16.40;40.00
5802;DHT22;2927;49.366;8.530;2022-09-09T19:18:38;16.30;99.90
5802;DHT22;2927;49.366;8.530;2022-09-09T19:21:16;16.30;99.90
5802;DHT22;2927;49.366;8.530;2022-09-09T19:23:44;16.40;99.90
5802;DHT22;2927;49.366;8.530;2022-09-09T19:26:10;16.40;99.90
5802;DHT22;2927;49.366;8.530;2022-09-09T19:28:36;16.50;99.90
5802;DHT22;2927;49.366;8.530;2022-09-09T19:31:06;16.50;99.90
5802;DHT22;2927;49.366;8.530;2022-09-09T19:33:33;16.50;99.90
5802;DHT22;2927;49.366;8.530;2022-09-09T19:36:02;16.50;99.90
5802;DHT22;2927;49.366;8.530;2022-09-09T19:38:28;16.50;99.90
5802;DHT22;2927;49.366;8.530;2022-09-09T19:40:54;16.50;99.90
5802;DHT22;2927;49.366;8.530;2022-09-09T19:43:21;16.40;99.90
5802;DHT22;2927;49.366;8.530;2022-09-09T19:46:02;16.60;99.90
5802;DHT22;2927;49.366;8.530;2022-09-09T19:48:32;16.50;99.90
5802;DHT22;2927;49.366;8.530;2022-09-09T19:51:04;16.60;99.90
5802;DHT22;2927;49.366;8.530;2022-09-09T19:53:51;16.50;99.90
5802;DHT22;2927;49.366;8.530;2022-09-09T19:56:19;16.50;99.90
5802;DHT22;2927;49.366;8.530;2022-09-09T19:58:46;16.60;99.90
5802;DHT22;2927;49.366;8.530;2022-09-09T20:01:15;16.50;99.90
5802;DHT22;2927;49.366;8.530;2022-09-09T20:03:43;16.60;99.90
5802;DHT22;2927;49.366;8.530;2022-09-09T20:06:11;16.70;99.90
5802;DHT22;2927;49.366;8.530;2022-09-09T20:08:38;16.60;99.90
5802;DHT22;2927;49.366;8.530;2022-09-09T20:11:05;16.60;99.90
5802;DHT22;2927;49.366;8.530;2022-09-09T20:13:33;16.50;99.90
5802;DHT22;2927;49.366;8.530;2022-09-09T20:16:05;16.50;99.90
5802;DHT22;2927;49.366;8.530;2022-09-09T20:18:34;16.60;99.90
5802;DHT22;2927;49.366;8.530;2022-09-09T20:21:01;16.50;99.90
5802;DHT22;2927;49.366;8.530;2022-09-09T20:23:28;16.50;99.90
5802;DHT22;2927;49.366;8.530;2022-09-09T20:25:55;16.60;99.90
5802;DHT22;2927;49.366;8.530;2022-09-09T20:28:24;16.70;99.90
5802;DHT22;2927;49.366;8.530;2022-09-09T20:30:50;16.80;99.90
5802;DHT22;2927;49.366;8.530;2022-09-09T20:33:16;16.90;99.90
5802;DHT22;2927;49.366;8.530;2022-09-09T20:35:43;16.90;99.90
5802;DHT22;2927;49.366;8.530;2022-09-09T20:38:08;16.90;99.90
5802;DHT22;2927;49.366;8.530;2022-09-09T20:40:38;16.90;99.90
5802;DHT22;2927;49.366;8.530;2022-09-09T20:43:04;16.90;99.90
5802;DHT22;2927;49.366;8.530;2022-09-09T20:45:30;16.90;99.90
5802;DHT22;2927;49.366;8.530;2022-09-09T20:47:59;16.90;99.90
5802;DHT22;2927;49.366;8.530;2022-09-09T20:50:24;16.90;99.90
5802;DHT22;2927;49.366;8.530;2022-09-09T20:52:50;16.90;99.90
5802;DHT22;2927;49.366;8.530;2022-09-09T20:55:17;16.90;99.90
5802;DHT22;2927;49.366;8.530;2022-09-09T20:57:42;16.90;99.90
5802;DHT22;2927;49.366;8.530;2022-09-09T21:00:10;16.90;99.90
5802;DHT22;2927;49.366;8.530;2022-09-09T21:02:35;16.90;99.90
5802;DHT22;2927;49.366;8.530;2022-09-09T21:05:01;16.90;99.90
5802;DHT22;2927;49.366;8.530;2022-09-09T21:07:27;16.90;99.90
5802;DHT22;2927;49.366;8.530;2022-09-09T21:09:53;16.90;99.90
5802;DHT22;2927;49.366;8.530;2022-09-09T21:12:22;16.90;99.90
5802;DHT22;2927;49.366;8.530;2022-09-09T21:14:47;16.90;99.90
5802;DHT22;2927;49.366;8.530;2022-09-09T21:17:13;16.90;99.90
5802;DHT22;2927;49.366;8.530;2022-09-09T21:19:38;16.90;99.90
5802;DHT22;2927;49.366;8.530;2022-09-09T21:22:04;16.80;99.90
5802;DHT22;2927;49.366;8.530;2022-09-09T21:24:30;16.80;99.90
5802;DHT22;2927;49.366;8.530;2022-09-09T21:26:55;16.80;99.90
5802;DHT22;2927;49.366;8.530;2022-09-09T21:29:21;16.70;99.90
5802;DHT22;2927;49.366;8.530;2022-09-09T21:31:48;16.60;99.90
5802;DHT22;2927;49.366;8.530;2022-09-09T21:34:13;16.70;99.90
5802;DHT22;2927;49.366;8.530;2022-09-09T21:36:39;16.70;99.90
5802;DHT22;2927;49.366;8.530;2022-09-09T21:39:05;16.70;99.90
5802;DHT22;2927;49.366;8.530;2022-09-09T21:41:31;16.70;99.90
5802;DHT22;2927;49.366;8.530;2022-09-09T21:43:56;16.70;99.90
5802;DHT22;2927;49.366;8.530;2022-09-09T21:46:22;16.60;99.90
5802;DHT22;2927;49.366;8.530;2022-09-09T21:48:50;16.60;99.90
5802;DHT22;2927;49.366;8.530;2022-09-09T21:51:16;16.60;99.90
5802;DHT22;2927;49.366;8.530;2022-09-09T21:53:42;16.60;99.90
5802;DHT22;2927;49.366;8.530;2022-09-09T21:56:14;16.50;99.90
5802;DHT22;2927;49.366;8.530;2022-09-09T21:58:40;16.50;99.90
5802;DHT22;2927;49.366;8.530;2022-09-09T22:01:11;16.50;99.90
5802;DHT22;2927;49.366;8.530;2022-09-09T22:03:37;16.40;99.90
5802;DHT22;2927;49.366;8.530;2022-09-09T22:06:07;16.40;99.90
5802;DHT22;2927;49.366;8.530;2022-09-09T22:08:34;16.40;99.90
5802;DHT22;2927;49.366;8.530;2022-09-09T22:11:15;16.40;99.90
5802;DHT22;2927;49.366;8.530;2022-09-09T22:13:42;16.40;99.90
5802;DHT22;2927;49.366;8.530;2022-09-09T22:16:11;16.40;99.90
5802;DHT22;2927;49.366;8.530;2022-09-09T22:18:38;16.30;99.90
5802;DHT22;2927;49.366;8.530;2022-09-09T22:21:15;16.30;99.90
5802;DHT22;2927;49.366;8.530;2022-09-09T22:23:41;16.30;99.90
5802;DHT22;2927;49.366;8.530;2022-09-09T22:26:07;16.20;99.90
5802;DHT22;2927;49.366;8.530;2022-09-09T22:28:34;16.20;99.90
5802;DHT22;2927;49.366;8.530;2022-09-09T22:31:00;16.20;99.90
5802;DHT22;2927;49.366;8.530;2022-09-09T22:33:26;16.20;99.90
5802;DHT22;2927;49.366;8.530;2022-09-09T22:35:53;16.20;99.90
5802;DHT22;2927;49.366;8.530;2022-09-09T22:38:19;16.20;99.90
5802;DHT22;2927;49.366;8.530;2022-09-09T22:40:46;16.20;99.90
5802;DHT22;2927;49.366;8.530;2022-09-09T22:43:15;16.30;99.90
5802;DHT22;2927;49.366;8.530;2022-09-09T22:45:42;16.20;99.90
5802;DHT22;2927;49.366;8.530;2022-09-09T22:48:09;16.20;99.90
5802;DHT22;2927;49.366;8.530;2022-09-09T22:50:36;16.20;99.90
5802;DHT22;2927;49.366;8.530;2022-09-09T22:53:05;16.30;99.90
5802;DHT22;2927;49.366;8.530;2022-09-09T22:55:31;16.20;99.90
5802;DHT22;2927;49.366;8.530;2022-09-09T22:57:57;16.20;99.90
5802;DHT22;2927;49.366;8.530;2022-09-09T23:00:24;16.20;99.90
5802;DHT22;2927;49.366;8.530;2022-09-09T23:02:50;16.10;99.90
5802;DHT22;2927;49.366;8.530;2022-09-09T23:05:16;16.20;99.90
5802;DHT22;2927;49.366;8.530;2022-09-09T23:07:44;16.20;99.90
5802;DHT22;2927;49.366;8.530;2022-09-09T23:10:09;16.10;99.90
5802;DHT22;2927;49.366;8.530;2022-09-09T23:12:36;16.10;99.90
5802;DHT22;2927;49.366;8.530;2022-09-09T23:15:06;16.10;99.90
5802;DHT22;2927;49.366;8.530;2022-09-09T23:17:38;16.00;99.90
5802;DHT22;2927;49.366;8.530;2022-09-09T23:20:06;16.00;99.90
5802;DHT22;2927;49.366;8.530;2022-09-09T23:22:32;16.10;99.90
5802;DHT22;2927;49.366;8.530;2022-09-09T23:25:01;16.00;99.90
5802;DHT22;2927;49.366;8.530;2022-09-09T23:27:27;16.10;99.90
5802;DHT22;2927;49.366;8.530;2022-09-09T23:29:54;16.00;99.90
5802;DHT22;2927;49.366;8.530;2022-09-09T23:32:20;16.00;99.90
5802;DHT22;2927;49.366;8.530;2022-09-09T23:34:46;16.00;99.90
5802;DHT22;2927;49.366;8.530;2022-09-09T23:37:13;16.00;99.90
5802;DHT22;2927;49.366;8.530;2022-09-09T23:39:39;16.00;99.90
5802;DHT22;2927;49.366;8.530;2022-09-09T23:42:05;16.00;99.90
5802;DHT22;2927;49.366;8.530;2022-09-09T23:44:33;16.00;99.90
5802;DHT22;2927;49.366;8.530;2022-09-09T23:46:59;16.00;99.90
5802;DHT22;2927;49.366;8.530;2022-09-09T23:49:26;16.00;99.90
5802;DHT22;2927;49.366;8.530;2022-09-09T23:51:52;15.90;99.90
5802;DHT22;2927;49.366;8.530;2022-09-09T23:54:18;15.90;99.90
5802;DHT22;2927;49.366;8.530;2022-09-09T23:56:43;15.90;99.90
5802;DHT22;2927;49.366;8.530;2022-09-09T23:59:10;15.90;99.90
